Aérodrome :
LOGIN :

S'inscrire | Disclaimer

   EN    FR    IT 

 










Légende :    VFR   VFR Marginal   IFR   IFR Intensif   IFR Très Intensif
Visi : 
Plafond : 
>= 8 km
>= 3000ft
5 à 8 km
1000 à 3000 ft
1500m à 5 km
500 à 1000 ft
800 à 1500m
200 à 500 ft
< 800m
< 200 ft
Symboles :   Orages  Brouillard  Fortes neiges  Fortes précipitations  Vent > 20 kt
SIGMETs :   Divers  Orages  Givrage  Turbulence  Onde Orograph.  Cendres Volcan.







- Altitude de l'aérodrome : 1046 ft
- Code IATA : NUE


EDDN - Nuremberg

DERNIER METAR :
  • 271250Z 27008KT 230V310 9999 SCT048 22/10 Q1009 NOSIG

METARs EXPIRÉS :
  • 271220Z 27009KT 240V300 9999 SCT048 21/09 Q1010 NOSIG
  • 271150Z 24009KT 200V300 9999 SCT045 21/10 Q1010 NOSIG
  • 271120Z 26009G22KT 180V320 9999 SCT045 21/09 Q1010 NOSIG
  • 271050Z 25007KT 190V350 9999 SCT045 21/09 Q1010 NOSIG
  • 271020Z 24008KT 170V280 9999 FEW040 21/10 Q1010 NOSIG

TAF TAF EDDN
Valide du 27 à 12h jusqu'au 28 à 12h UTC


271100Z 2712/2812 25008KT 9999 FEW040
BECMG 2717/2719 31003KT
BECMG 2810/2812 29008KT
Pas de NOTAMs connus pour ce terrain.



MET'MAP, la Météo Aéronautique d'un coup d'oeil ! - Copyright ORBIFLY Décembre 2007 - Disclaimer

ORBIFLY MET'MAP TEAM :

Programmation & Développement : Alexandra Zaïnal
Conception & Développement : Baudouin d'Aumeries
Co-Programmation & Développement : Marc-Olivier Méhu
Soutien technique & logistique : Manuel Goepfert

Contact : metmap@orbifly.com




SOURCES & CREDITS :

   NOAA